Terminal Aerodrome Forecast
Issued by NWS

Home | Current Version | Previous Version | Text Only | Print | Product List | Glossary On
Versions: 1 2 3 4 5 6 7 8 9 10 11 12 13 14 15
000
FTUS42 KTBW 281400 AAC
TAFLAL
TAF AMD
KLAL 281403Z 2814/2912 VRB04KT 4SM BR SCT005
      TEMPO 2814/2815 1SM BR BKN003
     FM281600 20006KT P6SM SCT025 SCT250
     FM290900 22004KT 4SM BR FEW025 SCT250=

USA.gov is the U.S. government's official web portal to all federal, state and local government web resources and services.